Time;durP1;ratioP1;P1;durP2;ratioP2;P2;SDS_P1;SDS_P2;PMS_P1;PMS_P2;Temp;Humidity;BMP_temperature;BMP_pressure;BME280_temperature;BME280_humidity;BME280_pressure;Samples;Min_cycle;Max_cycle;Signal;HPM_P1;HPM_P2
2023/08/15 00:00:24;;;;;;;27.80;15.43;;;18.40;99.90;;;;;;5087890;28;20048;-74
2023/08/15 00:02:49;;;;;;;32.93;15.60;;;18.40;99.90;;;;;;5055663;28;20037;-74
2023/08/15 00:05:15;;;;;;;30.13;16.33;;;18.30;99.90;;;;;;5055466;28;20095;-75
2023/08/15 00:07:41;;;;;;;27.83;17.20;;;18.30;99.90;;;;;;5054351;28;20048;-73
2023/08/15 00:10:07;;;;;;;35.40;16.70;;;18.30;99.90;;;;;;5055651;28;20045;-73
2023/08/15 00:12:33;;;;;;;32.22;17.33;;;18.30;99.90;;;;;;5055199;28;20045;-73
2023/08/15 00:14:58;;;;;;;37.07;18.37;;;18.20;99.90;;;;;;5054979;28;20130;-73
2023/08/15 00:17:24;;;;;;;30.67;17.27;;;18.10;99.90;;;;;;5055357;28;20044;-74
2023/08/15 00:19:50;;;;;;;34.40;19.13;;;18.20;99.90;;;;;;5055256;28;20041;-73
2023/08/15 00:22:17;;;;;;;36.90;19.17;;;18.20;99.90;;;;;;5054272;28;20060;-73
2023/08/15 00:24:43;;;;;;;36.22;18.50;;;18.10;99.90;;;;;;5055205;28;20103;-73
2023/08/15 00:27:09;;;;;;;38.63;19.80;;;18.10;99.90;;;;;;5053860;28;20053;-73
2023/08/15 00:29:35;;;;;;;38.15;20.70;;;18.00;99.90;;;;;;5054798;28;20053;-74
2023/08/15 00:32:01;;;;;;;35.90;19.37;;;18.00;99.90;;;;;;5055241;28;20049;-73
2023/08/15 00:34:27;;;;;;;38.57;20.30;;;18.00;99.90;;;;;;5055854;28;20045;-73
2023/08/15 00:36:52;;;;;;;38.00;19.17;;;18.00;99.90;;;;;;5053733;28;20049;-73
2023/08/15 00:39:18;;;;;;;35.13;19.17;;;18.00;99.90;;;;;;5053611;28;20045;-74
2023/08/15 00:41:44;;;;;;;35.40;18.70;;;18.00;99.90;;;;;;5054940;28;20127;-74
2023/08/15 00:44:10;;;;;;;35.90;18.98;;;18.10;99.90;;;;;;5020808;28;20049;-74
2023/08/15 00:46:38;;;;;;;34.47;17.30;;;18.20;99.90;;;;;;5054812;28;20045;-73
2023/08/15 00:49:05;;;;;;;39.78;18.25;;;18.20;99.90;;;;;;5054655;28;20056;-73
2023/08/15 00:51:32;;;;;;;35.00;18.00;;;18.30;99.90;;;;;;5054059;28;20174;-73
2023/08/15 00:53:59;;;;;;;34.15;18.20;;;18.40;99.90;;;;;;5086777;28;20053;-73
2023/08/15 00:56:24;;;;;;;37.75;18.08;;;18.50;99.90;;;;;;5070074;28;20056;-74
2023/08/15 00:58:50;;;;;;;43.17;19.70;;;18.50;99.90;;;;;;5087144;28;20044;-73
2023/08/15 01:01:17;;;;;;;31.63;18.50;;;18.50;99.90;;;;;;5053080;28;20049;-73
2023/08/15 01:03:43;;;;;;;38.33;18.80;;;18.60;99.90;;;;;;5036655;28;20122;-73
2023/08/15 01:06:09;;;;;;;37.85;18.65;;;18.50;99.90;;;;;;5086665;28;20041;-74
2023/08/15 01:08:35;;;;;;;32.27;19.43;;;18.50;99.90;;;;;;5053291;28;20664;-73
2023/08/15 01:11:01;;;;;;;33.57;19.23;;;18.50;99.90;;;;;;5053135;28;20053;-73
2023/08/15 01:13:39;;;;;;;35.58;19.15;;;18.50;99.90;;;;;;5054090;28;20045;-74
2023/08/15 01:16:15;;;;;;;37.28;18.98;;;18.50;99.90;;;;;;5052591;28;20524;-72
2023/08/15 01:18:50;;;;;;;39.65;19.70;;;18.50;99.90;;;;;;5070583;28;20445;-73
2023/08/15 01:21:22;;;;;;;38.05;19.15;;;18.50;99.90;;;;;;5054848;28;20067;-73
2023/08/15 01:23:50;;;;;;;40.75;20.48;;;18.50;99.90;;;;;;5087499;28;20421;-72
2023/08/15 01:26:15;;;;;;;36.25;20.90;;;18.40;99.90;;;;;;5053892;28;20045;-74
2023/08/15 01:28:41;;;;;;;39.17;20.43;;;18.40;99.90;;;;;;5053046;28;20075;-73
2023/08/15 01:31:32;;;;;;;40.47;20.50;;;18.40;99.90;;;;;;5036007;28;20102;-73
2023/08/15 01:34:21;;;;;;;43.85;21.70;;;18.40;99.90;;;;;;5053935;28;20044;-74
2023/08/15 01:36:56;;;;;;;40.05;21.80;;;18.40;99.90;;;;;;5053076;28;20060;-73
2023/08/15 01:39:27;;;;;;;42.17;21.60;;;18.40;99.90;;;;;;5054604;28;20144;-74
2023/08/15 01:41:54;;;;;;;40.85;22.20;;;18.40;99.90;;;;;;5053101;28;20106;-73
2023/08/15 01:44:21;;;;;;;44.70;22.75;;;18.30;99.90;;;;;;5069346;28;20052;-72
2023/08/15 01:46:47;;;;;;;44.13;21.95;;;18.30;99.90;;;;;;5052525;28;20133;-73
2023/08/15 01:49:13;;;;;;;39.00;21.13;;;18.30;99.90;;;;;;5054487;28;20076;-73
2023/08/15 01:51:39;;;;;;;46.60;22.70;;;18.40;99.90;;;;;;5052721;28;20044;-73
2023/08/15 01:54:05;;;;;;;45.57;23.37;;;18.40;99.90;;;;;;5051992;28;20147;-74
2023/08/15 01:56:31;;;;;;;43.20;22.37;;;18.40;99.90;;;;;;5052313;28;20056;-73
2023/08/15 01:58:57;;;;;;;44.13;22.13;;;18.40;99.90;;;;;;5053481;28;20113;-73
2023/08/15 02:01:23;;;;;;;43.15;21.60;;;18.50;99.90;;;;;;5053048;28;20071;-75
2023/08/15 02:03:49;;;;;;;44.93;23.40;;;18.50;99.90;;;;;;5054337;28;20478;-74
2023/08/15 02:06:15;;;;;;;44.87;21.27;;;18.50;99.90;;;;;;5085901;28;20570;-73
2023/08/15 02:08:41;;;;;;;45.23;21.80;;;18.50;99.90;;;;;;5052890;28;20179;-73
2023/08/15 02:11:06;;;;;;;41.57;22.23;;;18.50;99.90;;;;;;5053725;28;20057;-74
2023/08/15 02:13:33;;;;;;;42.03;23.00;;;18.50;99.90;;;;;;5052384;28;20452;-75
2023/08/15 02:15:59;;;;;;;46.13;23.27;;;18.50;99.90;;;;;;5052775;28;20056;-76
2023/08/15 02:18:29;;;;;;;41.42;23.27;;;18.40;99.90;;;;;;5053230;28;20053;-76
2023/08/15 02:20:55;;;;;;;42.15;22.88;;;18.40;99.90;;;;;;5053346;28;20472;-76
2023/08/15 02:23:21;;;;;;;44.17;23.73;;;18.40;99.90;;;;;;5053529;28;20069;-75
2023/08/15 02:25:47;;;;;;;44.73;24.13;;;18.30;99.90;;;;;;5053372;28;20040;-76
2023/08/15 02:28:16;;;;;;;43.90;24.03;;;18.30;99.90;;;;;;5053434;28;20072;-76
2023/08/15 02:30:42;;;;;;;43.88;24.90;;;18.30;99.90;;;;;;5053715;28;20064;-77
2023/08/15 02:33:08;;;;;;;48.07;25.10;;;18.30;99.90;;;;;;5054225;28;20041;-75
2023/08/15 02:35:38;;;;;;;43.20;24.50;;;18.40;99.90;;;;;;5052172;28;20398;-75
2023/08/15 02:38:04;;;;;;;47.30;25.52;;;18.40;99.90;;;;;;5053169;28;20545;-75
2023/08/15 02:40:29;;;;;;;51.20;25.23;;;18.40;99.90;;;;;;5053650;28;20045;-75
2023/08/15 02:42:55;;;;;;;47.83;25.73;;;18.40;99.90;;;;;;5052364;28;20389;-76
2023/08/15 02:45:21;;;;;;;43.93;24.17;;;18.40;99.90;;;;;;5052735;28;20052;-76
2023/08/15 02:47:47;;;;;;;49.70;25.60;;;18.50;99.90;;;;;;5052165;28;20499;-76
2023/08/15 02:50:14;;;;;;;53.27;25.67;;;18.40;99.90;;;;;;5053653;28;20037;-75
2023/08/15 02:52:40;;;;;;;52.28;26.20;;;18.50;99.90;;;;;;5053578;28;20048;-75
2023/08/15 02:55:06;;;;;;;56.28;25.33;;;18.50;99.90;;;;;;5085206;28;20485;-75
2023/08/15 02:57:33;;;;;;;48.22;25.90;;;18.50;99.90;;;;;;5052036;28;20385;-75
2023/08/15 02:59:58;;;;;;;47.47;26.10;;;18.50;99.90;;;;;;5052258;28;20044;-75
2023/08/15 03:02:25;;;;;;;52.10;25.30;;;18.50;99.90;;;;;;5052987;28;20057;-76
2023/08/15 03:04:51;;;;;;;;;;;18.50;99.90;;;;;;5054197;28;20044;-76
2023/08/15 03:07:16;;;;;;;48.23;25.93;;;18.50;99.90;;;;;;5051746;28;20361;-76
2023/08/15 03:09:42;;;;;;;50.00;27.00;;;18.50;99.90;;;;;;5051892;28;20288;-76
2023/08/15 03:12:08;;;;;;;50.07;27.50;;;18.50;99.90;;;;;;5052949;28;20049;-76
2023/08/15 03:14:34;;;;;;;58.47;28.67;;;18.50;99.90;;;;;;5054585;28;20454;-76
2023/08/15 03:17:02;;;;;;;49.43;26.83;;;18.50;99.90;;;;;;5055396;28;20052;-75
2023/08/15 03:19:27;;;;;;;49.40;25.90;;;18.50;99.90;;;;;;5057521;28;20124;-76
2023/08/15 03:21:53;;;;;;;46.40;26.60;;;18.50;99.90;;;;;;5058550;28;20504;-76
2023/08/15 03:24:19;;;;;;;52.67;26.97;;;18.50;99.90;;;;;;5063828;28;20098;-77
2023/08/15 03:26:45;;;;;;;53.53;28.00;;;18.50;99.90;;;;;;5066514;28;20052;-77
2023/08/15 03:29:10;;;;;;;48.07;27.03;;;18.50;99.90;;;;;;5061644;28;20139;-76
2023/08/15 03:31:36;;;;;;;53.00;27.00;;;18.50;99.90;;;;;;5056620;28;20055;-77
2023/08/15 03:34:02;;;;;;;48.43;26.93;;;18.50;99.90;;;;;;5056899;28;20393;-75
2023/08/15 03:36:28;;;;;;;46.20;26.63;;;18.50;99.90;;;;;;5056686;28;20051;-77
2023/08/15 03:38:54;;;;;;;56.93;28.47;;;18.50;99.90;;;;;;5057998;28;20049;-77
2023/08/15 03:41:21;;;;;;;49.80;27.33;;;18.50;99.90;;;;;;5057627;28;20127;-76
2023/08/15 03:43:47;;;;;;;52.10;27.80;;;18.50;99.90;;;;;;5089404;28;20052;-76
2023/08/15 03:46:13;;;;;;;55.10;27.93;;;18.50;99.90;;;;;;5089396;28;20049;-75
2023/08/15 03:48:38;;;;;;;57.43;27.07;;;18.50;99.90;;;;;;5056274;28;20079;-77
2023/08/15 03:51:05;;;;;;;;;;;18.50;99.90;;;;;;5056440;28;20053;-76
2023/08/15 03:53:31;;;;;;;55.20;28.10;;;18.50;99.90;;;;;;5055825;28;19921;-75
2023/08/15 03:55:57;;;;;;;54.50;28.10;;;18.50;99.90;;;;;;5055863;28;20228;-77
2023/08/15 03:58:23;;;;;;;49.17;26.93;;;18.60;99.90;;;;;;5057240;28;20143;-75
2023/08/15 04:00:49;;;;;;;;;;;18.60;99.90;;;;;;5056852;28;20084;-76
2023/08/15 04:03:16;;;;;;;50.28;27.30;;;18.60;99.90;;;;;;5071840;28;20261;-75
2023/08/15 04:05:48;;;;;;;53.65;27.23;;;18.60;99.90;;;;;;5055397;28;20535;-75
2023/08/15 04:08:15;;;;;;;57.25;28.33;;;18.70;99.90;;;;;;5056264;28;20048;-78
2023/08/15 04:10:43;;;;;;;53.67;27.65;;;18.70;99.90;;;;;;5054407;28;20083;-71
2023/08/15 04:13:09;;;;;;;64.20;31.63;;;18.70;99.90;;;;;;5072044;28;20056;-75
2023/08/15 04:15:36;;;;;;;68.40;30.40;;;18.70;99.90;;;;;;5056042;28;20049;-73
2023/08/15 04:18:05;;;;;;;;;;;18.60;99.90;;;;;;5056275;28;20045;-77
2023/08/15 04:20:32;;;;;;;66.15;29.10;;;18.50;99.90;;;;;;5087340;28;19966;-75
2023/08/15 04:22:57;;;;;;;74.72;32.03;;;18.50;99.90;;;;;;5054015;28;20057;-77
2023/08/15 04:25:23;;;;;;;56.63;26.73;;;18.40;99.90;;;;;;5054090;28;20162;-77
2023/08/15 04:27:49;;;;;;;62.00;31.37;;;18.30;99.90;;;;;;5055446;28;20142;-77
2023/08/15 04:30:15;;;;;;;58.03;28.20;;;18.30;99.90;;;;;;5055962;28;20049;-77
2023/08/15 04:32:40;;;;;;;63.37;29.07;;;18.30;99.90;;;;;;5056128;28;20045;-77
2023/08/15 04:35:07;;;;;;;76.63;30.63;;;18.30;99.90;;;;;;5057060;28;20413;-77
2023/08/15 04:37:33;;;;;;;58.05;28.10;;;18.30;99.90;;;;;;5039027;28;20442;-77
2023/08/15 04:39:59;;;;;;;58.77;27.93;;;18.20;99.90;;;;;;5038287;28;20091;-77
2023/08/15 04:42:25;;;;;;;61.27;27.13;;;18.20;99.90;;;;;;5055792;28;20055;-77
2023/08/15 04:44:50;;;;;;;55.20;26.63;;;18.20;99.90;;;;;;5055205;28;20527;-78
2023/08/15 04:47:18;;;;;;;63.10;28.40;;;18.20;99.90;;;;;;5054963;28;20454;-76
2023/08/15 04:49:43;;;;;;;66.93;29.10;;;18.20;99.90;;;;;;5037439;28;20045;-75
2023/08/15 04:52:09;;;;;;;49.70;26.17;;;18.10;99.90;;;;;;5054935;28;20091;-76
2023/08/15 04:54:35;;;;;;;57.13;26.10;;;18.20;99.90;;;;;;5036638;28;20509;-75
2023/08/15 04:57:00;;;;;;;53.30;25.10;;;18.10;99.90;;;;;;5054506;28;20123;-74
2023/08/15 04:59:26;;;;;;;54.27;25.70;;;18.10;99.90;;;;;;5054677;28;20119;-74
2023/08/15 05:01:52;;;;;;;49.37;24.77;;;18.20;99.90;;;;;;5054384;28;20067;-76
2023/08/15 05:04:17;;;;;;;56.40;25.43;;;18.20;99.90;;;;;;5053760;28;20044;-75
2023/08/15 05:06:43;;;;;;;58.97;25.70;;;18.20;99.90;;;;;;5053627;28;20582;-75
2023/08/15 05:09:09;;;;;;;53.53;25.87;;;18.20;99.90;;;;;;5053853;28;20088;-74
2023/08/15 05:11:34;;;;;;;54.07;25.23;;;18.20;99.90;;;;;;5054185;28;20049;-75
2023/08/15 05:14:01;;;;;;;55.77;24.13;;;18.20;99.90;;;;;;5053997;28;20061;-76
2023/08/15 05:16:27;;;;;;;50.30;22.85;;;18.20;99.90;;;;;;5054083;28;20489;-75
2023/08/15 05:18:52;;;;;;;49.00;23.73;;;18.20;99.90;;;;;;5037012;28;20037;-75
2023/08/15 05:21:18;;;;;;;52.87;24.43;;;18.20;99.90;;;;;;5019996;28;20473;-76
2023/08/15 05:23:44;;;;;;;49.60;24.73;;;18.20;99.90;;;;;;5053847;28;20131;-76
2023/08/15 05:26:10;;;;;;;44.67;22.73;;;18.20;99.90;;;;;;5035884;28;20106;-75
2023/08/15 05:28:36;;;;;;;52.83;23.17;;;18.20;99.90;;;;;;5052559;28;20045;-76
2023/08/15 05:31:01;;;;;;;53.57;24.70;;;18.30;99.90;;;;;;5052732;28;20444;-76
2023/08/15 05:33:27;;;;;;;42.17;22.23;;;18.30;99.90;;;;;;5054463;28;20055;-75
2023/08/15 05:35:53;;;;;;;51.50;22.77;;;18.30;99.90;;;;;;5036181;28;20059;-75
2023/08/15 05:38:18;;;;;;;48.57;21.47;;;18.30;99.90;;;;;;5052574;28;20094;-76
2023/08/15 05:40:44;;;;;;;43.67;19.90;;;18.30;99.90;;;;;;5052079;28;20041;-76
2023/08/15 05:43:10;;;;;;;43.17;21.43;;;18.30;99.90;;;;;;5054157;28;20045;-77
2023/08/15 05:45:35;;;;;;;41.23;18.03;;;18.30;99.90;;;;;;5052290;28;20505;-76
2023/08/15 05:48:01;;;;;;;43.47;18.17;;;18.30;99.90;;;;;;5054049;28;20059;-79
2023/08/15 05:50:27;;;;;;;44.43;18.53;;;18.30;99.90;;;;;;5052460;28;20493;-78
2023/08/15 05:52:52;;;;;;;46.83;17.87;;;18.20;99.90;;;;;;5053914;28;20047;-79
2023/08/15 05:55:18;;;;;;;37.90;17.43;;;18.20;99.90;;;;;;5052171;28;20568;-77
2023/08/15 05:57:44;;;;;;;37.83;15.10;;;18.10;99.90;;;;;;5053104;28;20462;-80
2023/08/15 06:00:10;;;;;;;39.00;15.27;;;18.10;99.90;;;;;;5054021;28;20044;-80
2023/08/15 06:02:38;;;;;;;34.25;15.38;;;18.00;99.90;;;;;;5053761;28;20094;-78
2023/08/15 06:05:05;;;;;;;37.13;16.05;;;18.00;99.90;;;;;;5036423;28;20052;-81
2023/08/15 06:07:30;;;;;;;37.63;14.13;;;18.10;99.90;;;;;;5052462;28;20045;-80
2023/08/15 06:09:56;;;;;;;31.30;13.83;;;18.10;99.90;;;;;;5052497;28;20047;-78
2023/08/15 06:12:22;;;;;;;29.70;12.67;;;18.10;99.90;;;;;;5053815;28;20045;-81
2023/08/15 06:14:48;;;;;;;31.37;13.03;;;18.10;99.90;;;;;;5053750;28;20091;-80
2023/08/15 06:17:13;;;;;;;31.73;12.20;;;18.10;99.90;;;;;;5054048;28;20094;-78
2023/08/15 06:19:39;;;;;;;35.27;12.60;;;18.10;99.90;;;;;;5053745;28;20044;-81
2023/08/15 06:22:05;;;;;;;28.10;11.40;;;18.10;99.90;;;;;;5053200;28;20127;-81
2023/08/15 06:24:31;;;;;;;31.33;12.17;;;18.10;99.90;;;;;;5054513;28;20763;-81
2023/08/15 06:26:57;;;;;;;31.40;13.57;;;18.20;99.90;;;;;;5038740;28;20088;-79
2023/08/15 06:29:25;;;;;;;30.45;13.32;;;18.20;99.90;;;;;;5054832;28;20050;-79
2023/08/15 06:31:52;;;;;;;32.20;12.85;;;18.20;99.90;;;;;;5053619;28;20375;-79
2023/08/15 06:34:18;;;;;;;35.15;12.02;;;18.30;99.90;;;;;;5053818;28;20053;-79
2023/08/15 06:36:45;;;;;;;29.90;10.50;;;18.40;99.90;;;;;;5053502;28;20136;-78
2023/08/15 06:39:11;;;;;;;33.08;11.40;;;18.40;99.90;;;;;;5052372;28;20478;-76
2023/08/15 06:41:37;;;;;;;28.98;11.13;;;18.50;99.90;;;;;;5053276;28;20052;-77
2023/08/15 06:44:04;;;;;;;32.35;10.35;;;18.50;99.90;;;;;;5085575;28;20445;-74
2023/08/15 06:46:29;;;;;;;33.45;11.40;;;18.50;99.90;;;;;;5053056;28;20123;-77
2023/08/15 06:48:55;;;;;;;34.67;10.50;;;18.50;99.90;;;;;;5055848;28;20127;-77
2023/08/15 06:51:21;;;;;;;31.03;10.47;;;18.60;99.90;;;;;;5039697;28;20110;-78
2023/08/15 06:53:49;;;;;;;33.03;10.87;;;18.60;99.90;;;;;;5056799;28;20457;-77
2023/08/15 06:56:15;;;;;;;38.03;11.75;;;18.70;99.90;;;;;;5056866;28;20068;-78
2023/08/15 06:58:41;;;;;;;39.17;12.73;;;18.80;99.90;;;;;;5056857;28;20049;-80
2023/08/15 07:01:07;;;;;;;37.43;10.90;;;18.80;99.90;;;;;;5057599;28;20091;-79
2023/08/15 07:03:33;;;;;;;35.33;11.97;;;18.90;99.90;;;;;;5055553;28;20049;-80
2023/08/15 07:05:59;;;;;;;28.73;10.32;;;19.00;99.90;;;;;;5055444;28;20464;-77
2023/08/15 07:08:25;;;;;;;28.40;9.68;;;19.00;99.90;;;;;;5073369;28;20041;-78
2023/08/15 07:10:55;;;;;;;43.63;9.00;;;19.00;99.90;;;;;;5056908;28;20203;-78
2023/08/15 07:13:21;;;;;;;33.53;8.80;;;19.20;99.90;;;;;;5055390;28;20060;-74
2023/08/15 07:15:53;;;;;;;26.37;8.90;;;19.20;99.90;;;;;;5055774;28;20045;-77
2023/08/15 07:18:19;;;;;;;28.23;7.47;;;19.30;99.90;;;;;;5056558;28;20128;-77
2023/08/15 07:20:45;;;;;;;30.47;7.30;;;19.40;99.90;;;;;;5038621;28;20179;-79
2023/08/15 07:23:11;;;;;;;31.47;8.67;;;19.50;99.90;;;;;;5056421;28;20046;-74
2023/08/15 07:25:41;;;;;;;25.63;7.70;;;19.50;99.90;;;;;;5039459;28;20132;-76
2023/08/15 07:28:07;;;;;;;30.23;8.32;;;19.60;99.90;;;;;;5055764;28;20045;-77
2023/08/15 07:30:33;;;;;;;32.50;8.20;;;19.70;99.90;;;;;;5056397;28;20106;-79
2023/08/15 07:32:59;;;;;;;26.48;7.40;;;19.70;99.90;;;;;;5056461;28;20048;-81
2023/08/15 07:35:25;;;;;;;25.67;7.43;;;19.80;99.90;;;;;;5056801;28;20053;-75
2023/08/15 07:37:51;;;;;;;29.37;8.07;;;19.80;99.90;;;;;;5056251;28;20132;-78
2023/08/15 07:40:21;;;;;;;27.37;8.97;;;20.00;99.90;;;;;;5055416;28;20045;-80
2023/08/15 07:42:49;;;;;;;30.00;8.45;;;20.20;99.90;;;;;;5056621;28;20077;-79
2023/08/15 07:45:18;;;;;;;30.63;9.30;;;20.50;99.90;;;;;;5057574;28;20048;-82
2023/08/15 07:47:45;;;;;;;33.95;11.07;;;20.60;99.90;;;;;;5059962;28;20053;-80
2023/08/15 07:50:15;;;;;;;34.45;11.52;;;20.60;99.90;;;;;;5062362;28;20052;-82
2023/08/15 07:52:42;;;;;;;29.00;12.18;;;20.60;99.90;;;;;;5060066;28;20060;-76
2023/08/15 07:55:08;;;;;;;32.33;13.13;;;20.60;99.90;;;;;;5058378;28;20403;-80
2023/08/15 07:57:34;;;;;;;40.35;14.38;;;20.70;99.90;;;;;;5059377;28;20106;-83
2023/08/15 08:00:00;;;;;;;35.85;13.52;;;20.60;99.90;;;;;;5057849;28;20041;-80
2023/08/15 08:02:26;;;;;;;33.58;14.63;;;20.70;99.90;;;;;;5056771;28;20057;-80
2023/08/15 08:04:53;;;;;;;38.13;15.17;;;20.70;99.90;;;;;;5055443;28;20156;-82
2023/08/15 08:07:18;;;;;;;40.80;17.17;;;20.60;99.90;;;;;;5090370;28;20056;-81
2023/08/15 08:09:44;;;;;;;44.37;16.50;;;20.60;99.90;;;;;;5057977;28;20063;-83
2023/08/15 08:12:10;;;;;;;44.07;17.27;;;20.60;99.90;;;;;;5056994;28;20477;-82
2023/08/15 08:14:35;;;;;;;43.47;18.50;;;20.70;99.90;;;;;;5055593;28;20049;-78
2023/08/15 08:17:01;;;;;;;41.47;18.03;;;20.70;99.90;;;;;;5056939;28;20044;-81
2023/08/15 08:19:27;;;;;;;43.60;18.23;;;20.70;99.90;;;;;;5057462;28;20178;-82
2023/08/15 08:21:53;;;;;;;34.93;16.97;;;20.70;99.90;;;;;;5057155;28;20045;-82
2023/08/15 08:24:19;;;;;;;39.27;16.00;;;20.80;99.90;;;;;;5038893;28;20052;-81
2023/08/15 08:26:44;;;;;;;40.70;16.37;;;20.80;99.90;;;;;;5056158;28;20113;-75
2023/08/15 08:29:11;;;;;;;38.60;16.80;;;20.80;99.90;;;;;;5056308;28;20049;-78
2023/08/15 08:31:39;;;;;;;34.30;16.70;;;20.80;99.90;;;;;;5055429;28;20045;-80
2023/08/15 08:34:15;;;;;;;31.77;15.48;;;21.00;99.90;;;;;;5054142;28;20057;-81
2023/08/15 08:36:41;;;;;;;34.20;15.10;;;21.10;99.90;;;;;;5054898;28;20048;-81
2023/08/15 08:39:07;;;;;;;41.58;14.77;;;21.10;99.90;;;;;;5056039;28;20041;-76
2023/08/15 08:41:37;;;;;;;37.33;14.70;;;21.10;99.90;;;;;;5053924;28;20365;-77
2023/08/15 08:44:03;;;;;;;40.53;14.45;;;21.00;99.90;;;;;;5087558;28;20288;-82
2023/08/15 08:46:29;;;;;;;31.75;11.70;;;21.00;99.90;;;;;;5054268;28;20045;-74
2023/08/15 08:48:59;;;;;;;26.23;8.75;;;21.10;99.90;;;;;;5055051;28;20048;-76
2023/08/15 08:51:25;;;;;;;26.58;7.28;;;21.20;99.90;;;;;;5055102;28;20489;-77
2023/08/15 08:53:52;;;;;;;24.00;6.47;;;21.30;99.90;;;;;;5054313;28;20048;-76
2023/08/15 08:56:18;;;;;;;23.52;6.63;;;21.30;99.90;;;;;;5036438;28;20060;-74
2023/08/15 08:58:59;;;;;;;19.40;6.20;;;21.30;99.90;;;;;;5053617;28;20075;-75
2023/08/15 09:01:29;;;;;;;22.38;6.68;;;21.40;99.90;;;;;;5054936;28;20436;-75
2023/08/15 09:03:56;;;;;;;23.77;7.65;;;21.50;99.90;;;;;;5055020;28;20100;-76
2023/08/15 09:06:22;;;;;;;23.45;5.70;;;21.50;99.90;;;;;;5054279;28;20052;-74
2023/08/15 09:08:48;;;;;;;15.55;5.28;;;21.60;99.90;;;;;;5054906;28;20063;-74
2023/08/15 09:11:14;;;;;;;18.97;5.97;;;21.60;99.90;;;;;;5052719;28;20044;-76
2023/08/15 09:13:51;;;;;;;19.07;5.73;;;21.70;99.90;;;;;;5036165;28;20041;-75
2023/08/15 09:16:17;;;;;;;18.98;5.68;;;21.70;99.90;;;;;;5053424;28;20045;-74
2023/08/15 09:18:43;;;;;;;17.57;5.07;;;21.80;99.90;;;;;;5054007;28;20504;-77
2023/08/15 09:21:11;;;;;;;17.23;5.00;;;21.90;99.90;;;;;;5053741;28;20049;-74
2023/08/15 09:23:40;;;;;;;18.40;5.70;;;22.00;99.90;;;;;;5054124;28;20048;-74
2023/08/15 09:26:16;;;;;;;26.40;6.78;;;22.10;99.90;;;;;;5054661;28;20407;-77
2023/08/15 09:28:43;;;;;;;24.38;7.35;;;22.10;99.90;;;;;;5053263;28;20123;-74
2023/08/15 09:31:10;;;;;;;22.15;6.72;;;22.20;99.90;;;;;;5053222;28;20123;-75
2023/08/15 09:33:37;;;;;;;;;;;22.40;99.90;;;;;;5054821;28;20536;-72
2023/08/15 09:36:06;;;;;;;13.90;4.60;;;22.60;99.90;;;;;;5069549;28;19921;-74
2023/08/15 09:38:32;;;;;;;25.73;5.63;;;22.80;99.90;;;;;;5054218;28;20049;-74
2023/08/15 09:40:59;;;;;;;15.23;4.60;;;23.10;99.90;;;;;;5069247;28;20507;-75
2023/08/15 09:43:25;;;;;;;15.00;4.53;;;23.40;99.90;;;;;;5052556;28;20374;-73
2023/08/15 09:45:52;;;;;;;22.52;5.97;;;23.60;99.90;;;;;;5052772;28;20396;-76
2023/08/15 09:48:19;;;;;;;22.70;5.63;;;23.60;99.90;;;;;;5053587;28;20397;-75
2023/08/15 09:50:49;;;;;;;19.27;4.78;;;23.50;99.90;;;;;;5053658;28;20037;-74
2023/08/15 09:53:15;;;;;;;19.02;4.25;;;23.40;99.90;;;;;;5054179;28;20045;-73
2023/08/15 09:55:41;;;;;;;20.53;4.60;;;23.30;99.90;;;;;;5052027;28;20064;-74
2023/08/15 09:58:08;;;;;;;20.30;4.10;;;23.10;99.90;;;;;;5052501;28;20459;-74
2023/08/15 10:00:36;;;;;;;18.95;4.20;;;23.10;99.90;;;;;;5053147;28;20473;-74
2023/08/15 10:03:16;;;;;;;15.65;4.28;;;23.00;99.90;;;;;;5053431;28;20045;-73
2023/08/15 10:05:54;;;;;;;16.88;3.95;;;23.00;99.90;;;;;;5052645;28;20048;-73
2023/08/15 10:08:21;;;;;;;18.38;4.78;;;23.00;99.90;;;;;;5053742;28;20107;-78
2023/08/15 10:10:50;;;;;;;20.02;4.28;;;23.10;99.90;;;;;;5035944;28;20055;-73
2023/08/15 10:13:22;;;;;;;16.13;5.15;;;23.10;99.90;;;;;;5052125;28;20053;-72
2023/08/15 10:15:49;;;;;;;17.85;6.10;;;23.20;99.90;;;;;;5052807;28;20053;-74
2023/08/15 10:18:14;;;;;;;16.92;4.97;;;23.10;99.90;;;;;;5053334;28;20056;-73
2023/08/15 10:20:40;;;;;;;17.63;5.27;;;23.30;99.90;;;;;;5052426;28;20473;-73
2023/08/15 10:23:09;;;;;;;19.57;5.10;;;23.30;99.90;;;;;;5054086;28;20049;-74
2023/08/15 10:25:37;;;;;;;27.02;5.68;;;23.60;99.90;;;;;;5056291;28;20048;-75
2023/08/15 10:28:07;;;;;;;23.25;5.88;;;23.70;99.90;;;;;;5057528;28;20049;-74
2023/08/15 10:30:41;;;;;;;18.08;6.03;;;23.90;99.90;;;;;;5057360;28;20150;-73
2023/08/15 10:33:15;;;;;;;24.35;6.50;;;23.90;99.90;;;;;;5057695;28;20385;-73
2023/08/15 10:35:51;;;;;;;26.02;6.15;;;23.90;99.90;;;;;;5057406;28;20041;-75
2023/08/15 10:38:21;;;;;;;21.88;5.53;;;23.80;99.90;;;;;;5056290;28;20477;-72
2023/08/15 10:40:50;;;;;;;21.00;5.70;;;23.90;99.90;;;;;;5056019;28;20045;-74
2023/08/15 10:43:16;;;;;;;22.42;5.68;;;23.90;99.90;;;;;;5056947;28;20049;-73
2023/08/15 10:45:50;;;;;;;21.63;5.97;;;23.90;99.90;;;;;;5057230;28;20049;-73
2023/08/15 10:48:49;;;;;;;23.55;6.03;;;23.90;99.90;;;;;;5055937;28;20059;-73
2023/08/15 10:51:36;;;;;;;29.75;6.85;;;24.10;99.90;;;;;;5056236;28;20508;-75
2023/08/15 10:54:06;;;;;;;15.02;4.68;;;24.40;99.90;;;;;;5057561;28;20045;-74
2023/08/15 10:56:34;;;;;;;19.70;5.55;;;24.50;99.90;;;;;;5056274;28;20049;-73
2023/08/15 10:59:08;;;;;;;17.55;4.85;;;24.70;99.90;;;;;;5055764;28;20091;-74
2023/08/15 11:01:36;;;;;;;19.20;4.25;;;24.90;99.90;;;;;;5056392;28;20353;-75
2023/08/15 11:04:03;;;;;;;13.70;5.00;;;24.90;99.90;;;;;;5056892;28;20051;-74
2023/08/15 11:06:30;;;;;;;;;;;24.90;99.90;;;;;;5057834;28;20123;-75
2023/08/15 11:08:57;;;;;;;19.52;5.30;;;24.80;99.90;;;;;;5056517;28;19921;-74
2023/08/15 11:11:23;;;;;;;16.25;4.57;;;24.80;99.90;;;;;;5055937;28;20123;-75
2023/08/15 11:13:52;;;;;;;23.25;7.68;;;24.90;99.90;;;;;;5056580;28;20049;-73
2023/08/15 11:16:20;;;;;;;26.13;6.32;;;24.80;99.90;;;;;;5056637;28;20131;-72
2023/08/15 11:18:47;;;;;;;27.02;5.90;;;24.70;99.90;;;;;;5055834;28;20049;-73
2023/08/15 11:21:15;;;;;;;20.98;5.85;;;24.70;99.90;;;;;;5055249;28;20053;-75
2023/08/15 11:23:41;;;;;;;20.50;6.35;;;24.80;99.90;;;;;;5055671;28;20045;-73
2023/08/15 11:26:11;;;;;;;18.00;5.88;;;25.10;99.90;;;;;;5038114;28;20053;-73
2023/08/15 11:28:38;;;;;;;21.55;5.75;;;25.30;99.90;;;;;;5056260;28;20048;-74
2023/08/15 11:31:08;;;;;;;19.92;6.03;;;25.20;99.90;;;;;;5056445;28;20393;-74
2023/08/15 11:33:34;;;;;;;19.15;6.57;;;25.30;99.90;;;;;;5055039;28;20064;-74
2023/08/15 11:36:02;;;;;;;26.27;7.18;;;25.30;99.90;;;;;;5055116;28;20493;-75
2023/08/15 11:38:28;;;;;;;27.60;6.50;;;25.40;99.90;;;;;;5055884;28;20163;-74
2023/08/15 11:40:59;;;;;;;21.80;6.30;;;25.50;99.90;;;;;;5055184;28;20056;-72
2023/08/15 11:43:32;;;;;;;19.48;6.63;;;25.40;99.90;;;;;;5054983;28;20079;-73
2023/08/15 11:46:03;;;;;;;23.67;7.07;;;25.30;99.90;;;;;;5038422;28;20045;-74
2023/08/15 11:48:30;;;;;;;23.88;6.93;;;25.00;99.90;;;;;;5054610;28;20037;-72
2023/08/15 11:50:56;;;;;;;22.38;7.35;;;24.90;99.90;;;;;;5055892;28;20128;-73
2023/08/15 11:53:22;;;;;;;24.63;7.38;;;24.70;99.90;;;;;;5054766;28;20131;-74
2023/08/15 11:55:48;;;;;;;23.05;8.25;;;24.60;99.90;;;;;;5054581;28;20167;-75
2023/08/15 11:58:30;;;;;;;26.25;8.65;;;24.40;99.90;;;;;;5055942;28;20059;-75
2023/08/15 12:01:05;;;;;;;25.20;9.10;;;24.40;99.90;;;;;;5056410;28;20369;-73
2023/08/15 12:03:31;;;;;;;28.52;8.40;;;24.40;99.90;;;;;;5055847;28;20393;-75
2023/08/15 12:05:59;;;;;;;32.28;8.95;;;24.50;99.90;;;;;;5055825;28;20362;-69
2023/08/15 12:08:29;;;;;;;23.85;7.82;;;24.60;99.90;;;;;;5055453;28;20114;-75
2023/08/15 12:10:57;;;;;;;18.50;7.78;;;24.60;99.90;;;;;;5055390;28;20052;-74
2023/08/15 12:13:33;;;;;;;25.58;8.77;;;24.60;99.90;;;;;;5056171;28;20370;-76
2023/08/15 12:16:00;;;;;;;27.10;10.25;;;24.50;99.90;;;;;;5056290;28;20049;-74
2023/08/15 12:18:26;;;;;;;24.08;10.02;;;24.40;99.90;;;;;;5054391;28;20049;-72
2023/08/15 12:20:53;;;;;;;31.48;11.02;;;24.50;99.90;;;;;;5054073;28;20128;-75
2023/08/15 12:23:18;;;;;;;33.30;11.73;;;24.40;99.90;;;;;;5054286;28;20113;-75
2023/08/15 12:25:44;;;;;;;26.52;10.68;;;24.50;99.90;;;;;;5055664;28;20556;-72
2023/08/15 12:28:10;;;;;;;24.42;11.10;;;24.80;99.90;;;;;;5054927;28;20404;-75
2023/08/15 12:30:36;;;;;;;24.38;10.48;;;25.20;99.90;;;;;;5055061;28;20041;-74
2023/08/15 12:33:02;;;;;;;29.80;12.07;;;25.40;99.90;;;;;;5054991;28;20452;-74